Time;durP1;ratioP1;P1;durP2;ratioP2;P2;SDS_P1;SDS_P2;PMS_P1;PMS_P2;Temp;Humidity;BMP_temperature;BMP_pressure;BME280_temperature;BME280_humidity;BME280_pressure;Samples;Min_cycle;Max_cycle;Signal;HPM_P1;HPM_P2
2022/03/18 00:00:18;;;;;;;120.13;65.20;;;3.80;1.00;;;;;;5073665;28;20143;-77
2022/03/18 00:02:46;;;;;;;126.55;70.68;;;3.80;2.60;;;;;;5072818;28;20064;-78
2022/03/18 00:05:14;;;;;;;136.32;75.38;;;3.80;1.00;;;;;;5088277;28;20055;-77
2022/03/18 00:07:42;;;;;;;148.80;79.68;;;3.80;1.00;;;;;;5091835;28;20147;-77
2022/03/18 00:10:10;;;;;;;155.57;83.78;;;3.80;1.00;;;;;;5094819;28;20101;-77
2022/03/18 00:12:38;;;;;;;154.10;85.75;;;3.70;1.00;;;;;;5094099;28;20044;-77
2022/03/18 00:15:08;;;;;;;164.90;88.38;;;3.70;1.00;;;;;;5094807;28;20070;-77
2022/03/18 00:17:38;;;;;;;165.68;89.53;;;3.60;1.00;;;;;;5093439;28;20160;-78
2022/03/18 00:20:06;;;;;;;160.27;84.45;;;3.40;1.00;;;;;;5080261;28;20121;-78
2022/03/18 00:22:35;;;;;;;154.25;83.30;;;3.30;1.00;;;;;;5073889;28;20055;-78
2022/03/18 00:25:04;;;;;;;136.52;75.43;;;3.30;99.90;;;;;;5081059;28;20047;-78
2022/03/18 00:27:31;;;;;;;145.68;78.50;;;3.30;99.90;;;;;;5073719;28;20048;-77
2022/03/18 00:30:00;;;;;;;152.65;81.72;;;3.30;1.00;;;;;;5074453;28;20044;-78
2022/03/18 00:32:28;;;;;;;147.13;77.78;;;3.30;99.90;;;;;;5079153;28;20505;-77
2022/03/18 00:34:57;;;;;;;174.23;89.80;;;3.40;99.90;;;;;;5090096;28;20048;-77
2022/03/18 00:37:24;;;;;;;158.63;82.47;;;3.30;99.90;;;;;;5093104;28;20043;-77
2022/03/18 00:39:52;;;;;;;148.95;78.60;;;3.30;99.90;;;;;;5085891;28;20043;-78
2022/03/18 00:42:19;;;;;;;148.30;79.07;;;3.30;99.90;;;;;;5083565;28;20041;-77
2022/03/18 00:44:48;;;;;;;148.38;80.97;;;3.30;33.60;;;;;;5094279;28;20044;-77
2022/03/18 00:52:47;;;;;;;140.57;77.63;;;3.20;1.00;;;;;;5093533;28;20119;-77
2022/03/18 00:55:14;;;;;;;144.25;74.50;;;3.20;1.00;;;;;;5092558;28;20044;-77
2022/03/18 00:57:42;;;;;;;143.15;75.90;;;3.10;1.00;;;;;;5094217;28;20040;-76
2022/03/18 01:00:10;;;;;;;172.27;89.35;;;3.10;1.00;;;;;;5094415;28;20047;-77
2022/03/18 01:02:39;;;;;;;136.90;74.88;;;2.90;1.00;;;;;;5093958;28;20048;-78
2022/03/18 01:05:09;;;;;;;138.02;74.75;;;2.90;24.30;;;;;;5113766;28;20044;-78
2022/03/18 01:07:36;;;;;;;151.27;80.85;;;2.90;99.90;;;;;;5103251;28;20047;-77
2022/03/18 01:10:05;;;;;;;153.10;78.13;;;2.80;77.10;;;;;;5094555;28;20044;-78
2022/03/18 01:12:32;;;;;;;135.35;75.13;;;2.80;99.90;;;;;;5095410;28;20067;-77
2022/03/18 01:15:00;;;;;;;135.38;75.32;;;2.80;99.90;;;;;;5094285;28;20466;-78
2022/03/18 01:17:28;;;;;;;152.40;78.93;;;2.80;99.90;;;;;;5095692;28;20051;-77
2022/03/18 01:19:55;;;;;;;148.55;80.53;;;2.80;99.90;;;;;;5094782;28;20048;-77
2022/03/18 01:22:24;;;;;;;139.70;74.40;;;2.70;26.50;;;;;;5093329;28;20052;-77
2022/03/18 01:24:51;;;;;;;149.65;80.40;;;2.60;99.90;;;;;;5094611;28;20072;-76
2022/03/18 01:27:19;;;;;;;146.38;77.72;;;2.50;99.90;;;;;;5096735;28;20043;-78
2022/03/18 01:29:46;;;;;;;139.98;77.10;;;2.50;99.90;;;;;;5096220;28;20126;-77
2022/03/18 01:32:14;;;;;;;129.48;71.13;;;2.50;99.90;;;;;;5095704;28;20102;-77
2022/03/18 01:34:41;;;;;;;136.80;76.55;;;2.60;99.90;;;;;;5096864;28;20044;-76
2022/03/18 01:37:09;;;;;;;130.95;70.15;;;2.60;99.90;;;;;;5095544;28;20052;-77
2022/03/18 01:39:37;;;;;;;134.23;71.35;;;2.60;99.90;;;;;;5099919;28;20051;-77
2022/03/18 01:42:05;;;;;;;133.38;72.40;;;2.70;99.90;;;;;;5107737;28;20056;-77
2022/03/18 01:44:41;;;;;;;138.23;73.45;;;2.70;99.90;;;;;;5108658;28;20043;-76
2022/03/18 01:47:09;;;;;;;140.95;74.13;;;2.70;99.90;;;;;;5107595;28;20059;-77
2022/03/18 01:49:37;;;;;;;125.57;68.05;;;2.60;99.90;;;;;;5095230;28;20054;-76
2022/03/18 01:52:06;;;;;;;129.00;70.22;;;2.60;99.90;;;;;;5106588;28;20105;-77
2022/03/18 01:54:47;;;;;;;133.13;71.50;;;2.60;99.90;;;;;;5107512;28;20062;-77
2022/03/18 01:57:19;;;;;;;132.00;73.00;;;2.60;99.90;;;;;;5108292;28;20062;-77
2022/03/18 01:59:47;;;;;;;131.27;72.65;;;2.50;93.90;;;;;;5103658;28;20051;-77
2022/03/18 02:02:15;;;;;;;137.43;75.57;;;2.50;89.80;;;;;;5096003;28;20111;-77
2022/03/18 02:04:42;;;;;;;132.50;72.88;;;2.50;49.60;;;;;;5095616;28;20514;-77
2022/03/18 02:07:10;;;;;;;124.45;68.90;;;2.40;12.60;;;;;;5096004;28;20051;-78
2022/03/18 02:09:39;;;;;;;125.35;68.10;;;2.50;54.30;;;;;;5095673;28;20048;-76
2022/03/18 02:12:09;;;;;;;175.85;93.45;;;2.50;99.90;;;;;;5095930;28;20039;-76
2022/03/18 02:14:40;;;;;;;148.02;78.95;;;2.40;77.20;;;;;;5095783;28;20036;-76
2022/03/18 02:17:09;;;;;;;148.50;78.30;;;2.40;99.90;;;;;;5094202;28;20101;-76
2022/03/18 02:19:37;;;;;;;146.05;76.38;;;2.40;88.20;;;;;;5094221;28;20051;-78
2022/03/18 02:22:10;;;;;;;144.73;74.57;;;2.40;7.20;;;;;;5094627;28;20475;-77
2022/03/18 02:24:39;;;;;;;155.27;80.30;;;2.30;99.90;;;;;;5111363;28;20044;-76
2022/03/18 02:27:07;;;;;;;130.93;67.63;;;2.30;99.90;;;;;;5111404;28;20479;-78
2022/03/18 02:29:35;;;;;;;129.52;67.30;;;2.30;99.90;;;;;;5094128;28;20415;-77
2022/03/18 02:32:04;;;;;;;129.77;69.70;;;2.20;99.90;;;;;;5095198;28;20517;-77
2022/03/18 02:34:31;;;;;;;133.75;71.43;;;2.20;99.90;;;;;;5093565;28;20052;-78
2022/03/18 02:36:59;;;;;;;119.28;65.30;;;2.20;99.90;;;;;;5093898;28;20075;-77
2022/03/18 02:39:27;;;;;;;137.00;70.35;;;2.10;99.90;;;;;;5083854;28;20055;-77
2022/03/18 02:41:56;;;;;;;114.10;62.22;;;2.10;99.90;;;;;;5091327;28;20043;-77
2022/03/18 02:44:23;;;;;;;108.32;59.95;;;2.20;1.00;;;;;;5085283;28;20182;-77
2022/03/18 02:46:52;;;;;;;114.85;62.58;;;2.20;99.90;;;;;;5094413;28;20511;-77
2022/03/18 02:49:20;;;;;;;118.93;61.80;;;2.20;99.90;;;;;;5094078;28;20036;-78
2022/03/18 02:51:48;;;;;;;136.18;72.07;;;2.20;99.90;;;;;;5095022;28;20040;-77
2022/03/18 02:54:15;;;;;;;124.75;68.10;;;2.10;99.90;;;;;;5094749;28;20498;-77
2022/03/18 02:56:43;;;;;;;119.95;64.15;;;2.00;23.50;;;;;;5093810;28;20040;-76
2022/03/18 02:59:12;;;;;;;123.57;64.20;;;2.00;99.90;;;;;;5093755;28;20048;-77
2022/03/18 03:01:39;;;;;;;117.32;64.28;;;1.90;99.90;;;;;;5094345;28;20464;-77
2022/03/18 03:04:07;;;;;;;115.75;65.90;;;1.90;99.90;;;;;;5093795;28;20048;-77
2022/03/18 03:09:19;;;;;;;122.10;66.63;;;1.90;1.00;;;;;;5094868;28;20064;-77
2022/03/18 03:11:47;;;;;;;113.78;63.95;;;1.90;99.90;;;;;;5106557;28;20078;-77
2022/03/18 03:14:16;;;;;;;114.70;63.90;;;1.90;99.90;;;;;;5102870;28;20059;-77
2022/03/18 03:16:44;;;;;;;116.03;63.60;;;1.90;99.90;;;;;;5110268;28;20048;-77
2022/03/18 03:19:13;;;;;;;113.53;62.33;;;1.90;99.90;;;;;;5092918;28;20048;-76
2022/03/18 03:21:41;;;;;;;111.30;59.80;;;1.80;99.90;;;;;;5094756;28;20036;-77
2022/03/18 03:24:08;;;;;;;106.85;57.55;;;1.80;99.90;;;;;;5097432;28;20064;-76
2022/03/18 03:26:36;;;;;;;106.93;56.85;;;1.80;99.90;;;;;;5114921;28;20040;-77
2022/03/18 03:29:03;;;;;;;107.50;58.55;;;1.80;99.90;;;;;;5115332;28;20111;-77
2022/03/18 03:31:32;;;;;;;107.15;58.10;;;1.80;1.00;;;;;;5102964;28;20562;-76
2022/03/18 03:34:02;;;;;;;104.20;56.28;;;1.80;99.90;;;;;;5092848;28;20138;-76
2022/03/18 03:36:29;;;;;;;103.28;55.92;;;1.80;99.90;;;;;;5093510;28;20143;-76
2022/03/18 03:38:57;;;;;;;106.15;58.30;;;1.60;99.90;;;;;;5093253;28;20044;-76
2022/03/18 03:41:24;;;;;;;106.50;58.58;;;1.60;99.90;;;;;;5094141;28;20463;-77
2022/03/18 03:43:52;;;;;;;104.80;60.70;;;1.50;99.90;;;;;;5092696;28;20052;-76
2022/03/18 03:46:20;;;;;;;110.22;61.55;;;1.50;1.00;;;;;;5092859;28;20052;-77
2022/03/18 03:48:48;;;;;;;102.93;58.47;;;1.40;1.00;;;;;;5093741;28;20046;-76
2022/03/18 03:51:16;;;;;;;96.88;53.47;;;1.40;1.00;;;;;;5092465;28;20602;-77
2022/03/18 03:53:43;;;;;;;103.90;54.65;;;1.50;1.00;;;;;;5092584;28;20048;-77
2022/03/18 03:56:11;;;;;;;96.28;53.03;;;1.50;1.00;;;;;;5078987;28;20147;-77
2022/03/18 03:58:38;;;;;;;96.10;52.55;;;1.50;1.00;;;;;;5084424;28;20044;-76
2022/03/18 04:01:06;;;;;;;90.35;50.85;;;1.50;1.00;;;;;;5084300;28;20044;-76
2022/03/18 04:03:33;;;;;;;97.40;55.65;;;1.40;1.00;;;;;;5094120;28;20038;-77
2022/03/18 04:06:02;;;;;;;94.55;55.00;;;1.30;1.00;;;;;;5093884;28;20047;-76
2022/03/18 04:08:30;;;;;;;95.43;53.55;;;1.30;1.00;;;;;;5084202;28;20375;-76
2022/03/18 04:10:57;;;;;;;86.60;49.03;;;1.30;1.00;;;;;;5084181;28;20463;-75
2022/03/18 04:13:25;;;;;;;89.90;51.58;;;1.30;1.00;;;;;;5085172;28;20071;-77
2022/03/18 04:15:52;;;;;;;97.75;53.80;;;1.40;1.00;;;;;;5080987;28;20036;-76
2022/03/18 04:18:20;;;;;;;90.32;49.40;;;1.30;1.00;;;;;;5083426;28;20517;-77
2022/03/18 04:20:47;;;;;;;88.07;49.80;;;1.20;1.00;;;;;;5073428;28;20036;-77
2022/03/18 04:23:16;;;;;;;90.18;50.25;;;1.20;1.00;;;;;;5072228;28;20079;-76
2022/03/18 04:25:44;;;;;;;98.15;55.10;;;1.10;1.00;;;;;;5074272;28;20063;-77
2022/03/18 04:28:11;;;;;;;93.82;53.40;;;1.10;1.00;;;;;;5093584;28;20052;-78
2022/03/18 04:30:39;;;;;;;103.82;57.22;;;1.10;1.00;;;;;;5093576;28;20054;-76
2022/03/18 04:33:06;;;;;;;103.15;56.17;;;1.10;1.00;;;;;;5092885;28;20522;-76
2022/03/18 04:35:34;;;;;;;104.03;54.85;;;1.10;1.00;;;;;;5092079;28;20082;-76
2022/03/18 04:38:01;;;;;;;100.90;57.40;;;1.20;1.00;;;;;;5093468;28;20044;-76
2022/03/18 04:40:32;;;;;;;105.40;57.55;;;1.10;99.90;;;;;;5092603;28;20127;-76
2022/03/18 04:42:59;;;;;;;106.68;61.33;;;1.10;1.00;;;;;;5092491;28;20044;-76
2022/03/18 04:45:27;;;;;;;94.95;52.60;;;1.10;1.00;;;;;;5094213;28;20043;-77
2022/03/18 04:47:55;;;;;;;90.57;50.58;;;1.10;1.00;;;;;;5094356;28;20044;-76
2022/03/18 04:50:22;;;;;;;94.30;53.30;;;1.10;1.00;;;;;;5092205;28;20048;-79
2022/03/18 04:52:51;;;;;;;100.15;56.35;;;1.20;1.00;;;;;;5083878;28;20043;-76
2022/03/18 04:55:19;;;;;;;103.28;56.80;;;1.20;1.00;;;;;;5088081;28;20039;-76
2022/03/18 04:57:48;;;;;;;108.32;60.92;;;1.10;99.90;;;;;;5084960;28;20036;-75
2022/03/18 05:00:17;;;;;;;114.53;61.47;;;1.00;99.90;;;;;;5095942;28;20040;-76
2022/03/18 05:02:45;;;;;;;130.30;69.63;;;1.00;99.90;;;;;;5097465;28;20047;-76
2022/03/18 05:05:12;;;;;;;140.18;72.20;;;0.90;99.90;;;;;;5095993;28;20529;-75
2022/03/18 05:07:40;;;;;;;130.00;71.82;;;1.00;1.00;;;;;;5096211;28;20044;-76
2022/03/18 05:10:08;;;;;;;122.78;68.00;;;1.00;1.00;;;;;;5095168;28;20503;-78
2022/03/18 05:12:36;;;;;;;121.32;68.18;;;1.00;1.00;;;;;;5095712;28;20495;-77
2022/03/18 05:15:05;;;;;;;119.35;67.78;;;1.10;1.00;;;;;;5097406;28;20071;-77
2022/03/18 05:17:33;;;;;;;112.78;62.55;;;1.20;99.90;;;;;;5106284;28;20044;-78
2022/03/18 05:20:00;;;;;;;115.05;62.05;;;1.20;99.90;;;;;;5113381;28;20094;-76
2022/03/18 05:22:28;;;;;;;136.98;74.47;;;1.30;1.00;;;;;;5113408;28;20123;-77
2022/03/18 05:24:55;;;;;;;130.63;68.97;;;1.40;1.00;;;;;;5115387;28;20028;-76
2022/03/18 05:27:40;;;;;;;124.93;68.05;;;1.50;99.90;;;;;;5121055;28;20040;-78
2022/03/18 05:30:11;;;;;;;128.00;67.45;;;1.50;22.10;;;;;;5120219;28;20040;-79
2022/03/18 05:32:40;;;;;;;125.13;67.72;;;1.60;1.00;;;;;;5115509;22;20402;-79
2022/03/18 05:35:09;;;;;;;123.07;66.57;;;1.60;1.00;;;;;;5087393;28;20143;-79
2022/03/18 05:37:37;;;;;;;115.28;62.92;;;1.70;1.00;;;;;;5086830;28;20052;-80
2022/03/18 05:40:06;;;;;;;122.53;66.65;;;1.70;1.00;;;;;;5087363;28;20483;-76
2022/03/18 05:42:34;;;;;;;132.27;69.13;;;1.80;1.00;;;;;;5089546;28;20040;-79
2022/03/18 05:45:02;;;;;;;119.03;62.53;;;1.90;1.00;;;;;;5095664;28;20054;-78
2022/03/18 05:47:31;;;;;;;114.95;62.45;;;2.00;1.00;;;;;;5100557;28;20068;-80
2022/03/18 05:50:05;;;;;;;123.95;64.72;;;2.10;1.00;;;;;;5085291;28;20036;-79
2022/03/18 05:52:33;;;;;;;126.25;69.68;;;2.30;99.90;;;;;;5077368;28;20053;-77
2022/03/18 05:55:00;;;;;;;126.00;67.60;;;2.30;99.90;;;;;;5084914;28;20044;-79
2022/03/18 05:57:27;;;;;;;129.18;68.22;;;2.50;99.90;;;;;;5099693;28;20126;-79
2022/03/18 05:59:56;;;;;;;127.18;71.13;;;2.50;99.90;;;;;;5094629;28;20043;-80
2022/03/18 06:02:25;;;;;;;133.38;73.80;;;2.70;99.90;;;;;;5080182;28;20483;-78
2022/03/18 06:04:54;;;;;;;145.15;81.20;;;2.90;99.90;;;;;;5094782;28;20039;-80
2022/03/18 06:07:22;;;;;;;157.70;83.18;;;3.00;77.40;;;;;;5098934;28;20409;-77
2022/03/18 06:12:34;;;;;;;187.85;110.22;;;3.30;1.00;;;;;;5099149;28;20059;-79
2022/03/18 06:15:02;;;;;;;165.10;93.60;;;3.40;1.00;;;;;;5096977;28;20044;-77
2022/03/18 06:17:29;;;;;;;140.18;82.50;;;3.50;1.00;;;;;;5094934;28;20036;-78
2022/03/18 06:19:58;;;;;;;158.88;85.28;;;3.70;1.00;;;;;;5088725;28;20119;-79
2022/03/18 06:22:25;;;;;;;166.10;87.05;;;4.00;1.00;;;;;;5086211;28;20055;-79
2022/03/18 06:24:53;;;;;;;147.93;78.40;;;4.10;1.00;;;;;;5097182;28;20040;-79
2022/03/18 06:27:20;;;;;;;177.77;87.15;;;4.30;1.00;;;;;;5098124;28;20482;-79
2022/03/18 06:29:48;;;;;;;184.77;91.78;;;4.30;1.00;;;;;;5097834;28;20047;-79
2022/03/18 06:32:15;;;;;;;177.60;89.07;;;4.40;1.00;;;;;;5097418;28;20518;-77
2022/03/18 06:34:43;;;;;;;148.60;82.47;;;4.50;1.00;;;;;;5101434;28;20086;-80
2022/03/18 06:37:11;;;;;;;132.57;75.28;;;4.70;1.00;;;;;;5098998;28;20048;-80
2022/03/18 06:39:39;;;;;;;140.75;77.82;;;5.00;1.00;;;;;;5095743;28;20068;-82
2022/03/18 06:42:07;;;;;;;157.20;81.88;;;5.10;99.90;;;;;;5086102;28;20044;-83
2022/03/18 06:44:34;;;;;;;160.00;85.07;;;5.20;99.90;;;;;;5099730;28;20036;-79
2022/03/18 06:47:02;;;;;;;161.95;85.78;;;5.30;99.90;;;;;;5093846;28;20487;-80
2022/03/18 06:49:29;;;;;;;147.55;81.07;;;5.40;99.90;;;;;;5086070;28;20041;-81
2022/03/18 06:51:56;;;;;;;138.13;77.13;;;5.60;99.90;;;;;;5088631;28;20044;-80
2022/03/18 06:54:25;;;;;;;147.07;83.25;;;5.80;99.90;;;;;;5087536;28;20042;-80
2022/03/18 06:56:53;;;;;;;114.85;66.88;;;6.00;99.90;;;;;;5080610;28;20067;-81
2022/03/18 06:59:20;;;;;;;131.90;71.13;;;6.30;99.90;;;;;;5076965;28;20225;-80
2022/03/18 07:01:48;;;;;;;121.85;70.90;;;6.50;99.90;;;;;;5082107;28;20517;-79
2022/03/18 07:04:15;;;;;;;122.90;67.65;;;6.70;99.90;;;;;;5089128;28;20115;-80
2022/03/18 07:06:43;;;;;;;116.65;64.78;;;7.10;99.90;;;;;;5096447;28;20040;-79
2022/03/18 07:09:11;;;;;;;95.30;57.10;;;7.40;99.90;;;;;;5097640;28;20473;-79
2022/03/18 07:11:40;;;;;;;90.78;54.85;;;7.60;99.90;;;;;;5098507;28;20066;-79
2022/03/18 07:14:08;;;;;;;84.80;46.97;;;7.60;94.60;;;;;;5099908;28;20058;-80
2022/03/18 07:19:20;;;;;;;38.85;23.63;;;7.80;37.90;;;;;;5090383;28;20056;-80
2022/03/18 07:21:47;;;;;;;36.63;23.30;;;7.60;11.80;;;;;;5076284;28;20490;-81
2022/03/18 07:24:15;;;;;;;33.28;21.77;;;7.70;1.00;;;;;;5076220;28;20036;-80
2022/03/18 07:26:44;;;;;;;36.70;23.23;;;7.70;1.00;;;;;;5083388;28;20058;-80
2022/03/18 07:29:11;;;;;;;39.10;22.98;;;7.70;1.00;;;;;;5098113;28;20422;-80
2022/03/18 07:31:39;;;;;;;33.95;21.90;;;7.70;1.00;;;;;;5096196;28;20054;-80
2022/03/18 07:34:06;;;;;;;34.88;20.70;;;7.80;1.00;;;;;;5098564;28;20517;-77
2022/03/18 07:36:34;;;;;;;32.92;20.08;;;8.00;1.00;;;;;;5096286;28;20075;-79
2022/03/18 07:39:01;;;;;;;32.38;20.75;;;7.90;1.00;;;;;;5097710;28;20122;-80
2022/03/18 07:41:29;;;;;;;29.67;19.38;;;8.00;1.00;;;;;;5096297;28;20067;-80
2022/03/18 07:43:58;;;;;;;27.60;18.20;;;8.10;1.00;;;;;;5097549;28;20060;-78
2022/03/18 07:46:26;;;;;;;28.20;18.13;;;8.20;1.00;;;;;;5097196;28;20076;-77
2022/03/18 07:48:54;;;;;;;23.05;16.48;;;8.10;1.00;;;;;;5097312;28;20044;-78
2022/03/18 07:51:21;;;;;;;29.08;18.45;;;8.30;1.00;;;;;;5095226;28;20048;-80
2022/03/18 07:53:49;;;;;;;27.50;18.13;;;8.40;1.00;;;;;;5095590;28;20071;-78
2022/03/18 07:56:17;;;;;;;27.30;18.60;;;8.70;1.00;;;;;;5095568;28;20452;-79
2022/03/18 07:58:44;;;;;;;26.77;17.35;;;8.90;1.00;;;;;;5095605;28;20397;-80
2022/03/18 08:01:13;;;;;;;24.95;16.15;;;9.00;1.00;;;;;;5096866;28;20039;-78
2022/03/18 08:03:40;;;;;;;26.48;16.35;;;8.90;1.00;;;;;;5095572;28;20539;-80
2022/03/18 08:06:08;;;;;;;27.33;16.30;;;8.80;1.00;;;;;;5097508;28;20438;-79
2022/03/18 08:08:35;;;;;;;27.38;16.83;;;8.80;1.00;;;;;;5095587;28;20044;-79
2022/03/18 08:11:03;;;;;;;25.60;16.60;;;8.80;1.00;;;;;;5095492;28;20135;-79
2022/03/18 08:13:31;;;;;;;25.00;16.15;;;8.50;1.00;;;;;;5096571;28;20044;-78
2022/03/18 08:15:59;;;;;;;20.98;14.77;;;8.60;1.00;;;;;;5097539;28;20067;-79
2022/03/18 08:18:27;;;;;;;25.70;16.00;;;8.60;1.00;;;;;;5096609;28;20054;-78
2022/03/18 08:20:55;;;;;;;26.27;16.77;;;8.80;1.00;;;;;;5079031;28;20119;-80
2022/03/18 08:23:23;;;;;;;24.60;15.25;;;8.90;1.00;;;;;;5079542;28;20446;-79
2022/03/18 08:25:50;;;;;;;27.75;14.80;;;8.80;1.00;;;;;;5078718;28;20055;-81
2022/03/18 08:28:18;;;;;;;21.00;14.57;;;9.00;1.00;;;;;;5097538;28;20047;-80
2022/03/18 08:30:45;;;;;;;24.50;15.65;;;9.40;1.00;;;;;;5097315;28;20044;-79
2022/03/18 08:33:12;;;;;;;23.33;16.45;;;9.50;1.00;;;;;;5096454;28;20495;-80
2022/03/18 08:35:41;;;;;;;23.83;15.43;;;9.50;1.00;;;;;;5099342;28;20047;-80
2022/03/18 08:38:09;;;;;;;27.02;15.70;;;9.70;1.00;;;;;;5101150;28;20044;-79
2022/03/18 08:40:38;;;;;;;23.95;15.52;;;9.30;1.00;;;;;;5101144;28;20067;-79
2022/03/18 08:43:09;;;;;;;21.23;13.90;;;9.40;1.00;;;;;;5099566;28;20062;-79
2022/03/18 08:45:37;;;;;;;21.30;14.82;;;9.10;1.00;;;;;;5101268;28;20044;-79
2022/03/18 08:48:06;;;;;;;20.13;13.90;;;9.20;1.00;;;;;;5098732;28;20036;-78
2022/03/18 08:50:34;;;;;;;34.15;15.93;;;9.30;1.00;;;;;;5099585;28;20044;-79
2022/03/18 08:53:09;;;;;;;22.50;15.15;;;9.30;1.00;;;;;;5098930;28;20051;-80
2022/03/18 08:55:37;;;;;;;24.63;15.83;;;9.50;1.00;;;;;;5098868;28;20048;-79
2022/03/18 08:58:05;;;;;;;21.13;14.40;;;9.40;1.00;;;;;;5099990;28;20295;-81
2022/03/18 09:00:33;;;;;;;20.02;14.05;;;9.40;1.00;;;;;;5100440;28;20048;-81
2022/03/18 09:03:01;;;;;;;27.20;15.13;;;9.30;1.00;;;;;;5100130;28;20048;-80
2022/03/18 09:05:29;;;;;;;24.00;14.45;;;9.30;1.00;;;;;;5101418;28;20044;-80
2022/03/18 09:07:57;;;;;;;22.13;14.02;;;9.30;1.00;;;;;;5099694;28;20143;-80
2022/03/18 09:10:26;;;;;;;21.98;15.07;;;9.50;1.00;;;;;;5100144;28;20044;-80
2022/03/18 09:12:58;;;;;;;23.67;15.63;;;9.50;1.00;;;;;;5099206;28;20109;-79
2022/03/18 09:15:26;;;;;;;23.23;14.82;;;10.00;1.00;;;;;;5098455;28;20047;-78
2022/03/18 09:17:54;;;;;;;22.73;13.80;;;10.40;1.00;;;;;;5099598;28;20039;-79
2022/03/18 09:20:22;;;;;;;21.23;13.77;;;10.60;1.00;;;;;;5082124;28;20049;-79
2022/03/18 09:22:49;;;;;;;21.08;14.40;;;10.70;1.00;;;;;;5078947;28;20051;-79
2022/03/18 09:25:17;;;;;;;23.10;14.00;;;10.40;1.00;;;;;;5079242;28;20108;-80
2022/03/18 09:27:47;;;;;;;21.75;12.93;;;10.70;1.00;;;;;;5096521;28;20044;-80
2022/03/18 09:30:15;;;;;;;23.67;16.65;;;10.90;1.00;;;;;;5106558;28;20478;-80
2022/03/18 09:32:43;;;;;;;30.67;15.75;;;11.00;1.00;;;;;;5104894;28;20051;-80
2022/03/18 09:35:14;;;;;;;31.42;18.73;;;10.90;1.00;;;;;;5079463;28;20048;-80
2022/03/18 09:37:42;;;;;;;24.83;15.20;;;10.90;1.00;;;;;;5079175;28;20075;-80
2022/03/18 09:40:11;;;;;;;26.05;16.20;;;11.00;1.00;;;;;;5079040;28;20060;-81
2022/03/18 09:42:58;;;;;;;20.42;13.90;;;11.00;1.00;;;;;;5081007;28;20070;-80
2022/03/18 09:45:30;;;;;;;19.25;13.30;;;11.30;1.00;;;;;;5077690;28;20127;-81
2022/03/18 09:47:58;;;;;;;20.92;13.25;;;11.50;1.00;;;;;;5079907;28;20048;-80
2022/03/18 09:50:26;;;;;;;17.13;11.57;;;11.30;1.00;;;;;;5078614;28;20044;-80
2022/03/18 09:52:54;;;;;;;20.77;11.88;;;11.30;1.00;;;;;;5078894;28;20046;-80
2022/03/18 09:55:22;;;;;;;21.95;13.20;;;11.30;1.00;;;;;;5080851;28;20064;-80
2022/03/18 09:57:49;;;;;;;19.60;12.90;;;11.30;1.00;;;;;;5080146;28;20123;-80
2022/03/18 10:00:18;;;;;;;21.60;12.65;;;11.30;1.00;;;;;;5078997;28;20048;-80
2022/03/18 10:02:46;;;;;;;14.88;11.10;;;11.40;1.00;;;;;;5077891;28;20044;-82
2022/03/18 10:05:14;;;;;;;23.02;12.80;;;11.70;1.00;;;;;;5078948;28;20044;-81
2022/03/18 10:07:54;;;;;;;16.52;10.68;;;11.70;1.00;;;;;;5078573;28;20052;-81
2022/03/18 10:10:23;;;;;;;19.25;11.43;;;11.70;1.00;;;;;;5080738;28;20411;-80
2022/03/18 10:12:54;;;;;;;21.30;12.30;;;11.90;1.00;;;;;;5077206;28;20112;-78
2022/03/18 10:15:26;;;;;;;15.45;10.95;;;12.10;1.00;;;;;;5077392;28;20053;-80
2022/03/18 10:17:56;;;;;;;14.85;10.68;;;12.10;1.00;;;;;;5078449;28;20502;-80
2022/03/18 10:20:28;;;;;;;14.60;10.48;;;11.80;1.00;;;;;;5089515;28;20118;-80
2022/03/18 10:22:57;;;;;;;19.52;11.32;;;11.50;1.00;;;;;;5098653;28;20112;-81
2022/03/18 10:25:40;;;;;;;17.55;11.05;;;11.50;1.00;;;;;;5103476;28;20047;-80
2022/03/18 10:28:09;;;;;;;21.67;12.65;;;11.50;1.00;;;;;;5102993;28;20045;-82
2022/03/18 10:30:38;;;;;;;18.65;11.52;;;11.40;1.00;;;;;;5101440;28;20051;-81
2022/03/18 10:33:06;;;;;;;18.20;11.13;;;11.50;1.00;;;;;;5098214;28;20052;-80
2022/03/18 10:38:32;;;;;;;26.75;13.15;;;11.10;1.00;;;;;;5097125;28;20503;-80
2022/03/18 10:41:01;;;;;;;18.63;12.50;;;11.40;1.00;;;;;;5097226;28;20135;-78
2022/03/18 10:43:29;;;;;;;19.08;11.15;;;11.60;1.00;;;;;;5098171;28;20055;-80
2022/03/18 10:46:08;;;;;;;21.65;12.15;;;11.70;1.00;;;;;;5102517;28;20040;-82
2022/03/18 10:48:35;;;;;;;21.02;13.07;;;11.70;1.00;;;;;;5101383;28;20043;-79
2022/03/18 10:51:08;;;;;;;19.02;11.18;;;11.70;1.00;;;;;;5100149;28;20044;-78
2022/03/18 10:53:37;;;;;;;18.48;11.15;;;11.60;1.00;;;;;;5094870;28;20047;-80
2022/03/18 10:56:05;;;;;;;20.33;13.73;;;11.70;1.00;;;;;;5105427;28;20044;-79
2022/03/18 10:58:33;;;;;;;22.17;15.32;;;11.60;1.00;;;;;;5113235;28;20048;-80
2022/03/18 11:01:04;;;;;;;20.45;14.20;;;11.30;1.00;;;;;;5110360;28;20052;-77
2022/03/18 11:03:35;;;;;;;22.75;14.50;;;11.40;1.00;;;;;;5111826;28;20048;-78
2022/03/18 11:06:04;;;;;;;20.27;14.05;;;11.40;1.00;;;;;;5108431;28;20047;-77
2022/03/18 11:08:42;;;;;;;19.55;13.88;;;11.00;1.00;;;;;;5111251;28;20503;-78
2022/03/18 11:11:14;;;;;;;20.00;14.65;;;11.10;1.00;;;;;;5112660;28;20078;-80
2022/03/18 11:13:56;;;;;;;20.67;13.75;;;11.30;1.00;;;;;;5103548;28;20066;-80
2022/03/18 11:16:27;;;;;;;20.17;12.80;;;11.40;1.00;;;;;;5105494;28;20040;-81
2022/03/18 11:18:57;;;;;;;19.67;13.07;;;10.80;1.00;;;;;;5101016;28;20499;-79
2022/03/18 11:21:35;;;;;;;23.15;14.02;;;10.50;1.00;;;;;;5106929;28;20128;-78
2022/03/18 11:24:04;;;;;;;19.38;13.60;;;10.60;1.00;;;;;;5108630;28;20097;-80
2022/03/18 11:26:34;;;;;;;18.33;13.20;;;10.70;1.00;;;;;;5107395;28;20120;-77
2022/03/18 11:29:13;;;;;;;18.98;13.23;;;10.90;1.00;;;;;;5108908;28;20044;-79
2022/03/18 11:31:41;;;;;;;20.98;13.75;;;11.00;1.00;;;;;;5121334;22;20046;-78
2022/03/18 11:34:12;;;;;;;22.58;14.23;;;10.90;1.00;;;;;;5134864;27;20032;-78
2022/03/18 11:36:46;;;;;;;19.08;13.48;;;11.00;1.00;;;;;;5101150;28;20078;-78
2022/03/18 11:39:21;;;;;;;22.05;14.80;;;10.50;1.00;;;;;;5097794;28;20048;-79
2022/03/18 11:41:56;;;;;;;23.55;14.57;;;10.60;1.00;;;;;;5121749;28;20100;-80
2022/03/18 11:44:55;;;;;;;19.33;13.02;;;11.10;1.00;;;;;;5109096;28;20337;-79
2022/03/18 11:47:44;;;;;;;16.13;11.52;;;11.10;1.00;;;;;;5097836;28;20096;-79
2022/03/18 11:50:44;;;;;;;21.73;12.27;;;10.90;1.00;;;;;;5073460;28;20134;-80
2022/03/18 11:53:53;;;;;;;16.13;11.48;;;11.30;1.00;;;;;;5069135;28;20135;-78
2022/03/18 11:56:23;;;;;;;18.15;11.70;;;11.40;1.00;;;;;;5074613;28;20052;-79
2022/03/18 11:58:50;;;;;;;20.00;11.52;;;11.60;1.00;;;;;;5077038;28;20055;-79
2022/03/18 12:01:41;;;;;;;16.33;11.27;;;11.80;1.00;;;;;;5094777;28;20036;-78
2022/03/18 12:04:09;;;;;;;20.48;11.13;;;11.60;1.00;;;;;;5071008;28;20048;-78
2022/03/18 12:07:10;;;;;;;15.63;10.25;;;11.00;1.00;;;;;;5070085;28;20048;-78
2022/03/18 12:09:59;;;;;;;14.73;10.27;;;10.70;1.00;;;;;;5091817;28;20052;-79
2022/03/18 12:12:29;;;;;;;21.08;13.38;;;10.30;1.00;;;;;;5088724;28;20398;-77
2022/03/18 12:14:59;;;;;;;21.67;13.13;;;10.40;1.00;;;;;;5073738;28;20052;-77
2022/03/18 12:17:27;;;;;;;20.85;12.65;;;10.60;1.00;;;;;;5071436;28;20138;-77
2022/03/18 12:19:57;;;;;;;16.88;11.60;;;10.50;1.00;;;;;;5075710;28;20044;-78
2022/03/18 12:22:25;;;;;;;16.88;11.07;;;10.30;1.00;;;;;;5075116;28;20498;-77
2022/03/18 12:24:55;;;;;;;19.67;12.70;;;10.40;1.00;;;;;;5076451;28;20052;-78
2022/03/18 12:27:29;;;;;;;19.83;12.18;;;10.50;1.00;;;;;;5094140;28;20048;-78
2022/03/18 12:29:59;;;;;;;18.17;11.80;;;10.30;1.00;;;;;;5095031;28;20073;-77
2022/03/18 12:32:26;;;;;;;19.85;12.10;;;10.30;1.00;;;;;;5075354;28;20102;-78
2022/03/18 12:34:55;;;;;;;19.23;12.30;;;10.30;1.00;;;;;;5088496;28;20044;-77
2022/03/18 12:37:24;;;;;;;19.77;12.45;;;10.00;1.00;;;;;;5057354;28;20056;-79
2022/03/18 12:40:07;;;;;;;19.08;11.98;;;9.80;1.00;;;;;;5078772;28;20048;-78
2022/03/18 12:42:53;;;;;;;17.38;11.52;;;9.80;1.00;;;;;;5076077;28;20040;-78
2022/03/18 12:45:31;;;;;;;20.40;12.60;;;9.70;1.00;;;;;;5074279;28;20044;-78
2022/03/18 12:48:00;;;;;;;20.33;12.98;;;9.70;1.00;;;;;;5093596;28;20036;-77
2022/03/18 12:50:29;;;;;;;18.85;12.48;;;9.80;1.00;;;;;;5094660;28;20036;-78
2022/03/18 12:52:57;;;;;;;23.35;14.70;;;9.70;1.00;;;;;;5092432;28;20033;-77
2022/03/18 12:55:26;;;;;;;24.77;14.82;;;9.50;1.00;;;;;;5092665;28;20048;-77
2022/03/18 12:58:04;;;;;;;20.48;13.20;;;9.80;1.00;;;;;;5056452;28;20427;-78
2022/03/18 13:00:39;;;;;;;27.00;15.38;;;10.00;1.00;;;;;;5075009;28;20056;-77
2022/03/18 13:03:08;;;;;;;25.42;13.35;;;9.80;1.00;;;;;;5075680;28;20041;-76